createdAt,value
2023-03-24T00:00:20.305Z,16.16
2023-03-24T00:02:49.367Z,16.21
2023-03-24T00:05:19.204Z,16.21
2023-03-24T00:07:47.089Z,16.15
2023-03-24T00:10:18.424Z,16.03
2023-03-24T00:12:47.920Z,15.92
2023-03-24T00:15:19.157Z,15.87
2023-03-24T00:17:50.374Z,15.87
2023-03-24T00:20:20.892Z,15.86
2023-03-24T00:22:57.126Z,15.91
2023-03-24T00:25:36.185Z,15.88
2023-03-24T00:28:06.522Z,15.86
2023-03-24T00:30:35.110Z,15.82
2023-03-24T00:33:02.237Z,15.81
2023-03-24T00:35:29.311Z,15.79
2023-03-24T00:37:56.183Z,15.74
2023-03-24T00:40:23.010Z,15.64
2023-03-24T00:42:50.791Z,15.58
2023-03-24T00:45:23.043Z,15.58
2023-03-24T00:47:54.315Z,15.49
2023-03-24T00:50:26.493Z,15.48
2023-03-24T00:52:55.951Z,15.50
2023-03-24T00:55:23.136Z,15.49
2023-03-24T00:57:51.436Z,15.50
2023-03-24T01:00:24.918Z,15.53
2023-03-24T01:02:57.514Z,15.58
2023-03-24T01:05:28.408Z,15.67
2023-03-24T01:08:06.261Z,15.70
2023-03-24T01:10:50.571Z,15.68
2023-03-24T01:13:18.745Z,15.72
2023-03-24T01:15:46.341Z,15.82
2023-03-24T01:18:15.043Z,15.88
2023-03-24T01:20:47.119Z,15.83
2023-03-24T01:23:17.290Z,15.87
2023-03-24T01:25:48.369Z,15.92
2023-03-24T01:28:18.708Z,15.82
2023-03-24T01:30:46.120Z,15.66
2023-03-24T01:33:13.687Z,15.52
2023-03-24T01:35:40.871Z,15.56
2023-03-24T01:38:10.628Z,15.67
2023-03-24T01:40:39.619Z,15.74
2023-03-24T01:43:09.932Z,15.66
2023-03-24T01:45:42.867Z,15.67
2023-03-24T01:48:30.123Z,15.79
2023-03-24T01:51:37.145Z,15.82
2023-03-24T01:54:25.415Z,15.79
2023-03-24T01:57:10.150Z,15.81
2023-03-24T01:59:44.515Z,15.86
2023-03-24T02:02:22.271Z,15.91
2023-03-24T02:04:59.990Z,15.94
2023-03-24T02:07:59.821Z,15.95
2023-03-24T02:10:33.937Z,15.86
2023-03-24T02:13:01.659Z,15.83
2023-03-24T02:15:31.691Z,15.92
2023-03-24T02:18:08.519Z,15.98
2023-03-24T02:20:46.970Z,15.99
2023-03-24T02:23:38.400Z,16.01
2023-03-24T02:26:36.463Z,16.01
2023-03-24T02:29:50.138Z,15.99
2023-03-24T02:32:41.888Z,15.89
2023-03-24T02:35:30.629Z,15.86
2023-03-24T02:38:23.993Z,15.80
2023-03-24T02:41:01.989Z,15.87
2023-03-24T02:43:32.525Z,15.83
2023-03-24T02:46:22.613Z,15.89
2023-03-24T02:48:49.754Z,15.88
2023-03-24T02:51:40.769Z,15.87
2023-03-24T02:54:11.687Z,15.92
2023-03-24T02:57:06.179Z,15.97
2023-03-24T03:00:24.320Z,15.90
2023-03-24T03:03:09.142Z,15.92
2023-03-24T03:05:44.722Z,15.90
2023-03-24T03:08:15.179Z,15.93
2023-03-24T03:10:46.541Z,16.00
2023-03-24T03:13:25.410Z,15.91
2023-03-24T03:15:58.835Z,15.93
2023-03-24T03:18:36.015Z,16.01
2023-03-24T03:21:10.457Z,16.06
2023-03-24T03:23:55.043Z,16.06
2023-03-24T03:26:26.801Z,16.14
2023-03-24T03:29:00.202Z,16.14
2023-03-24T03:31:35.733Z,16.18
2023-03-24T03:34:28.571Z,16.24
2023-03-24T03:37:10.232Z,16.24
2023-03-24T03:39:48.866Z,16.21
2023-03-24T03:42:16.755Z,16.14
2023-03-24T03:44:44.423Z,16.22
2023-03-24T03:47:14.631Z,16.23
2023-03-24T03:49:46.276Z,16.23
2023-03-24T03:52:19.882Z,16.23
2023-03-24T03:54:50.830Z,16.26
2023-03-24T03:57:21.357Z,16.31
2023-03-24T04:00:20.160Z,16.33
2023-03-24T04:03:19.592Z,16.32
2023-03-24T04:06:02.528Z,16.34
2023-03-24T04:08:53.689Z,16.37
2023-03-24T04:11:49.515Z,16.41
2023-03-24T04:15:11.226Z,16.41
2023-03-24T04:18:41.408Z,16.35
2023-03-24T04:21:27.932Z,16.38
2023-03-24T04:24:12.373Z,16.37
2023-03-24T04:27:00.932Z,16.38
2023-03-24T04:29:46.944Z,16.30
2023-03-24T04:32:46.872Z,16.30
2023-03-24T04:35:49.392Z,16.29
2023-03-24T04:38:28.471Z,16.25
2023-03-24T04:41:09.905Z,16.22
2023-03-24T04:43:39.258Z,16.25
2023-03-24T04:46:09.742Z,16.28
2023-03-24T04:48:52.471Z,16.32
2023-03-24T04:51:28.869Z,16.31
2023-03-24T04:54:06.157Z,16.27
2023-03-24T04:56:48.747Z,16.25
2023-03-24T04:59:34.855Z,16.20
2023-03-24T05:02:05.129Z,16.18
2023-03-24T05:04:40.585Z,16.15
2023-03-24T05:07:18.939Z,16.08
2023-03-24T05:09:49.434Z,16.07
2023-03-24T05:12:18.118Z,16.10
2023-03-24T05:15:04.337Z,16.04
2023-03-24T05:17:35.380Z,15.99
2023-03-24T05:20:07.001Z,15.96
2023-03-24T05:22:36.633Z,15.88
2023-03-24T05:25:04.557Z,15.83
2023-03-24T05:27:32.958Z,15.83
2023-03-24T05:30:12.794Z,15.79
2023-03-24T05:32:40.603Z,15.81
2023-03-24T05:35:09.219Z,15.77
2023-03-24T05:37:39.062Z,15.72
2023-03-24T05:40:07.417Z,15.72
2023-03-24T05:42:56.799Z,15.75
2023-03-24T05:45:27.257Z,15.73
2023-03-24T05:47:54.862Z,15.77
2023-03-24T05:50:31.972Z,15.83
2023-03-24T05:52:59.186Z,15.85
2023-03-24T05:56:01.378Z,15.83
2023-03-24T05:58:51.592Z,15.84
2023-03-24T06:01:19.688Z,15.81
2023-03-24T06:03:49.445Z,15.68
2023-03-24T06:06:17.066Z,15.54
2023-03-24T06:08:45.212Z,15.53
2023-03-24T06:11:14.117Z,15.62
2023-03-24T06:13:51.310Z,15.73
2023-03-24T06:16:24.074Z,15.78
2023-03-24T06:18:57.175Z,15.82
2023-03-24T06:21:51.861Z,15.79
2023-03-24T06:24:24.132Z,15.76
2023-03-24T06:26:52.191Z,15.73
2023-03-24T06:29:19.509Z,15.71
2023-03-24T06:31:49.178Z,15.74
2023-03-24T06:34:17.050Z,15.78
2023-03-24T06:36:52.707Z,15.75
2023-03-24T06:39:19.918Z,15.79
2023-03-24T06:41:47.400Z,15.83
2023-03-24T06:44:14.659Z,15.87
2023-03-24T06:46:43.025Z,15.86
2023-03-24T06:49:11.077Z,15.79
2023-03-24T06:51:38.166Z,15.80
2023-03-24T06:54:05.568Z,15.80
2023-03-24T06:56:35.725Z,15.81
2023-03-24T06:59:04.540Z,15.88
2023-03-24T07:01:35.240Z,15.94
2023-03-24T07:04:16.121Z,16.01
2023-03-24T07:07:08.558Z,16.16
2023-03-24T07:09:41.957Z,16.37
2023-03-24T07:12:09.466Z,16.43
2023-03-24T07:14:40.931Z,16.60
2023-03-24T07:17:08.480Z,16.57
2023-03-24T07:19:49.555Z,16.38
2023-03-24T07:22:37.146Z,16.28
2023-03-24T07:25:36.655Z,16.28
2023-03-24T07:28:14.016Z,16.23
2023-03-24T07:30:41.296Z,16.22
2023-03-24T07:33:12.943Z,16.23
2023-03-24T07:35:46.172Z,16.21
2023-03-24T07:38:13.468Z,16.17
2023-03-24T07:40:40.514Z,16.16
2023-03-24T07:43:07.766Z,16.19
2023-03-24T07:45:52.845Z,16.17
2023-03-24T07:48:19.826Z,16.27
2023-03-24T07:50:47.938Z,16.28
2023-03-24T07:53:34.155Z,16.15
2023-03-24T07:56:02.424Z,16.04
2023-03-24T07:58:30.145Z,15.97
2023-03-24T08:01:17.402Z,15.99
2023-03-24T08:03:49.542Z,16.07
2023-03-24T08:06:16.690Z,16.19
2023-03-24T08:08:52.886Z,16.26
2023-03-24T08:11:20.140Z,16.34
2023-03-24T08:13:47.268Z,16.38
2023-03-24T08:16:14.296Z,16.45
2023-03-24T08:18:41.149Z,16.36
2023-03-24T08:21:07.975Z,16.23
2023-03-24T08:23:37.095Z,16.12
2023-03-24T08:26:04.008Z,16.14
2023-03-24T08:28:30.933Z,16.25
2023-03-24T08:30:57.909Z,16.26
2023-03-24T08:33:24.997Z,16.26
2023-03-24T08:35:57.674Z,16.18
2023-03-24T08:38:30.774Z,16.12
2023-03-24T08:41:02.235Z,16.23
2023-03-24T08:43:30.779Z,16.21
2023-03-24T08:45:58.789Z,16.24
2023-03-24T08:48:26.259Z,16.16
2023-03-24T08:50:53.360Z,16.12
2023-03-24T08:53:20.788Z,16.21
2023-03-24T08:55:47.788Z,16.18
2023-03-24T08:58:20.528Z,16.19
2023-03-24T09:00:48.731Z,16.20
2023-03-24T09:03:18.181Z,16.29
2023-03-24T09:05:46.606Z,16.37
2023-03-24T09:08:21.442Z,16.34
2023-03-24T09:10:50.009Z,16.23
2023-03-24T09:13:20.083Z,16.39
2023-03-24T09:15:53.842Z,16.51
2023-03-24T09:18:22.293Z,16.43
2023-03-24T09:20:49.745Z,16.32
2023-03-24T09:23:17.462Z,16.24
2023-03-24T09:25:44.265Z,16.24
2023-03-24T09:28:11.317Z,16.34
2023-03-24T09:30:38.108Z,16.46
2023-03-24T09:33:04.862Z,16.53
2023-03-24T09:35:31.943Z,16.52
2023-03-24T09:37:59.162Z,16.47
2023-03-24T09:40:28.803Z,16.47
2023-03-24T09:43:05.599Z,16.50
2023-03-24T09:45:41.656Z,16.43
2023-03-24T09:48:17.920Z,16.47
2023-03-24T09:51:24.603Z,16.51
2023-03-24T09:54:13.369Z,16.53
2023-03-24T09:56:44.182Z,16.46
2023-03-24T09:59:19.253Z,16.48
2023-03-24T10:01:46.661Z,16.58
2023-03-24T10:04:17.069Z,16.62
2023-03-24T10:06:43.897Z,16.65
2023-03-24T10:09:19.761Z,16.73
2023-03-24T10:11:55.771Z,16.90
2023-03-24T10:14:47.417Z,17.01
2023-03-24T10:17:23.314Z,17.14
2023-03-24T10:20:13.127Z,17.22
2023-03-24T10:22:48.406Z,17.23
2023-03-24T10:25:22.799Z,17.14
2023-03-24T10:27:57.289Z,17.06
2023-03-24T10:30:28.884Z,17.06
2023-03-24T10:32:55.748Z,17.03
2023-03-24T10:35:30.130Z,17.06
2023-03-24T10:38:00.983Z,16.93
2023-03-24T10:40:33.458Z,16.77
2023-03-24T10:43:06.275Z,16.86
2023-03-24T10:45:36.839Z,17.04
2023-03-24T10:48:04.326Z,17.09
2023-03-24T10:50:35.998Z,17.03
2023-03-24T10:53:30.386Z,16.97
2023-03-24T10:55:57.081Z,16.82
2023-03-24T10:58:36.021Z,16.69
2023-03-24T11:01:03.709Z,16.16
2023-03-24T11:03:35.012Z,15.78
2023-03-24T11:06:04.432Z,15.65
2023-03-24T11:08:38.913Z,15.58
2023-03-24T11:11:29.541Z,15.72
2023-03-24T11:14:03.555Z,15.91
2023-03-24T11:16:44.024Z,16.29
2023-03-24T11:19:23.140Z,16.52
2023-03-24T11:21:52.845Z,16.56
2023-03-24T11:24:20.899Z,16.58
2023-03-24T11:27:00.425Z,16.90
2023-03-24T11:29:30.336Z,17.37
2023-03-24T11:32:11.974Z,17.68
2023-03-24T11:34:44.400Z,17.61
2023-03-24T11:37:17.329Z,17.41
2023-03-24T11:39:44.686Z,17.24
2023-03-24T11:42:12.092Z,17.15
2023-03-24T11:44:38.958Z,17.07
2023-03-24T11:47:08.746Z,17.13
2023-03-24T11:49:42.024Z,17.34
2023-03-24T11:52:20.066Z,17.37
2023-03-24T11:54:46.806Z,17.45
2023-03-24T11:57:17.684Z,17.55
2023-03-24T12:00:19.618Z,17.60
2023-03-24T12:03:07.760Z,17.58
2023-03-24T12:05:42.858Z,17.66
2023-03-24T12:08:18.897Z,17.84
2023-03-24T12:11:06.629Z,18.11
2023-03-24T12:13:37.250Z,18.16
2023-03-24T12:16:07.800Z,18.21
2023-03-24T12:18:52.676Z,18.19
2023-03-24T12:21:34.486Z,18.25
2023-03-24T12:24:30.773Z,18.64
2023-03-24T12:27:01.220Z,18.86
2023-03-24T12:29:32.341Z,19.31
2023-03-24T12:32:14.948Z,21.09
2023-03-24T12:35:09.687Z,22.21
2023-03-24T12:37:54.614Z,22.00
2023-03-24T12:40:41.384Z,21.58
2023-03-24T12:43:37.895Z,21.17
2023-03-24T12:46:21.729Z,21.23
2023-03-24T12:49:07.074Z,21.09
2023-03-24T12:51:47.759Z,21.01
2023-03-24T12:54:35.619Z,21.12
2023-03-24T12:57:08.195Z,20.82
2023-03-24T12:59:59.474Z,20.78
2023-03-24T13:02:42.680Z,20.52
2023-03-24T13:05:16.922Z,20.19
2023-03-24T13:07:48.435Z,20.04
2023-03-24T13:10:23.180Z,20.06
2023-03-24T13:13:02.601Z,19.91
2023-03-24T13:15:35.891Z,19.75
2023-03-24T13:18:11.820Z,19.36
2023-03-24T13:20:58.048Z,19.25
2023-03-24T13:23:35.839Z,19.61
2023-03-24T13:26:34.080Z,19.96
2023-03-24T13:29:03.926Z,20.46
2023-03-24T13:31:38.154Z,20.59
2023-03-24T13:34:10.808Z,20.53
2023-03-24T13:36:50.386Z,20.46
2023-03-24T13:39:21.396Z,20.17
2023-03-24T13:41:53.833Z,20.13
2023-03-24T13:44:22.848Z,20.21
2023-03-24T13:47:13.773Z,20.42
2023-03-24T13:49:43.225Z,20.73
2023-03-24T13:52:35.320Z,20.84
2023-03-24T13:55:08.510Z,20.86
2023-03-24T13:57:40.180Z,20.71
2023-03-24T14:00:22.438Z,20.54
2023-03-24T14:02:55.432Z,20.37
2023-03-24T14:05:22.087Z,20.23
2023-03-24T14:08:13.333Z,20.13
2023-03-24T14:10:45.398Z,20.03
2023-03-24T14:13:12.146Z,20.02
2023-03-24T14:15:52.343Z,20.33
2023-03-24T14:18:26.020Z,20.58
2023-03-24T14:20:56.236Z,20.74
2023-03-24T14:23:35.569Z,20.76
2023-03-24T14:26:02.322Z,20.81
2023-03-24T14:28:36.934Z,20.90
2023-03-24T14:31:18.571Z,21.07
2023-03-24T14:33:54.637Z,21.17
2023-03-24T14:36:41.057Z,21.06
2023-03-24T14:39:08.962Z,20.88
2023-03-24T14:41:39.164Z,20.90
2023-03-24T14:44:06.538Z,21.27
2023-03-24T14:46:42.208Z,21.88
2023-03-24T14:49:20.832Z,21.76
2023-03-24T14:52:09.243Z,21.38
2023-03-24T14:54:46.443Z,21.01
2023-03-24T14:57:41.564Z,20.75
2023-03-24T15:00:18.929Z,20.42
2023-03-24T15:02:49.308Z,20.16
2023-03-24T15:05:25.577Z,19.89
2023-03-24T15:08:03.413Z,19.72
2023-03-24T15:10:39.487Z,19.77
2023-03-24T15:13:18.642Z,19.65
2023-03-24T15:15:47.655Z,19.63
2023-03-24T15:18:18.818Z,19.58
2023-03-24T15:20:46.272Z,19.62
2023-03-24T15:23:22.273Z,19.67
2023-03-24T15:25:48.976Z,19.81
2023-03-24T15:28:26.749Z,20.16
2023-03-24T15:30:54.773Z,20.55
2023-03-24T15:33:21.820Z,20.80
2023-03-24T15:35:58.307Z,20.83
2023-03-24T15:38:31.314Z,20.55
2023-03-24T15:41:07.906Z,20.07
2023-03-24T15:43:43.992Z,19.79
2023-03-24T15:46:27.368Z,19.68
2023-03-24T15:48:59.254Z,19.50
2023-03-24T15:51:49.489Z,19.26
2023-03-24T15:54:22.945Z,19.15
2023-03-24T15:57:02.103Z,19.24
2023-03-24T15:59:37.231Z,19.33
2023-03-24T16:02:12.336Z,19.20
2023-03-24T16:04:40.914Z,19.12
2023-03-24T16:07:07.599Z,19.02
2023-03-24T16:09:41.030Z,18.88
2023-03-24T16:12:11.470Z,18.85
2023-03-24T16:14:38.895Z,18.77
2023-03-24T16:17:07.189Z,18.73
2023-03-24T16:19:34.055Z,18.74
2023-03-24T16:22:00.880Z,18.67
2023-03-24T16:24:27.513Z,18.66
2023-03-24T16:26:54.316Z,18.66
2023-03-24T16:29:23.024Z,18.58
2023-03-24T16:31:52.396Z,18.47
2023-03-24T16:34:21.005Z,18.36
2023-03-24T16:36:49.604Z,18.28
2023-03-24T16:39:21.796Z,18.17
2023-03-24T16:41:48.960Z,18.03
2023-03-24T16:44:17.483Z,17.92
2023-03-24T16:46:46.867Z,18.00
2023-03-24T16:49:19.048Z,18.08
2023-03-24T16:51:47.121Z,17.96
2023-03-24T16:54:14.232Z,17.82
2023-03-24T16:56:42.448Z,17.73
2023-03-24T16:59:10.650Z,17.67
2023-03-24T17:01:39.841Z,17.56
2023-03-24T17:04:34.108Z,17.53
2023-03-24T17:07:08.360Z,17.45
2023-03-24T17:09:36.241Z,17.40
2023-03-24T17:12:04.472Z,17.39
2023-03-24T17:14:32.160Z,17.36
2023-03-24T17:16:59.681Z,17.32
2023-03-24T17:19:27.127Z,17.28
2023-03-24T17:22:01.797Z,17.25
2023-03-24T17:24:36.000Z,17.24
2023-03-24T17:27:03.408Z,17.28
2023-03-24T17:29:30.261Z,17.28
2023-03-24T17:31:57.053Z,17.30
2023-03-24T17:34:23.782Z,17.37
2023-03-24T17:36:51.764Z,17.38
2023-03-24T17:39:20.016Z,17.33
2023-03-24T17:41:46.816Z,17.32
2023-03-24T17:44:14.459Z,17.21
2023-03-24T17:46:41.526Z,17.05
2023-03-24T17:49:08.480Z,16.91
2023-03-24T17:51:35.389Z,16.81
2023-03-24T17:54:02.623Z,16.74
2023-03-24T17:56:29.845Z,16.74
2023-03-24T17:58:59.118Z,16.69
2023-03-24T18:01:29.884Z,16.66
2023-03-24T18:03:58.093Z,16.57
2023-03-24T18:06:27.417Z,16.50
2023-03-24T18:08:55.006Z,16.42
2023-03-24T18:11:26.284Z,16.35
2023-03-24T18:13:52.988Z,16.29
2023-03-24T18:16:21.775Z,16.23
2023-03-24T18:18:50.370Z,16.20
2023-03-24T18:21:17.762Z,16.18
2023-03-24T18:23:48.648Z,16.17
2023-03-24T18:26:17.243Z,16.18
2023-03-24T18:28:46.066Z,16.11
2023-03-24T18:31:18.899Z,16.11
2023-03-24T18:33:47.605Z,16.08
2023-03-24T18:36:26.372Z,16.05
2023-03-24T18:39:01.134Z,16.00
2023-03-24T18:41:29.986Z,15.99
2023-03-24T18:43:59.445Z,15.96
2023-03-24T18:46:39.353Z,15.83
2023-03-24T18:49:10.759Z,15.81
2023-03-24T18:51:37.732Z,15.81
2023-03-24T18:54:08.320Z,15.78
2023-03-24T18:56:39.923Z,15.68
2023-03-24T18:59:09.814Z,15.58
2023-03-24T19:01:39.414Z,15.56
2023-03-24T19:04:06.500Z,15.54
2023-03-24T19:06:35.418Z,15.57
2023-03-24T19:09:02.640Z,15.65
2023-03-24T19:11:29.838Z,15.80
2023-03-24T19:13:57.167Z,15.86
2023-03-24T19:16:24.145Z,15.95
2023-03-24T19:18:51.128Z,16.02
2023-03-24T19:21:19.842Z,16.06
2023-03-24T19:23:53.125Z,16.02
2023-03-24T19:30:34.127Z,15.88
2023-03-24T19:33:02.063Z,15.82
2023-03-24T19:35:29.856Z,15.79
2023-03-24T19:37:57.083Z,15.87
2023-03-24T19:40:24.373Z,15.93
2023-03-24T19:42:53.254Z,15.94
2023-03-24T19:45:55.591Z,15.92
2023-03-24T19:49:01.572Z,15.93
2023-03-24T19:51:38.944Z,15.99
2023-03-24T19:54:19.862Z,16.00
2023-03-24T19:56:49.174Z,15.98
2023-03-24T19:59:23.690Z,15.83
2023-03-24T20:01:52.312Z,15.65
2023-03-24T20:04:31.542Z,15.45
2023-03-24T20:07:44.443Z,15.26
2023-03-24T20:10:55.635Z,15.11
2023-03-24T20:17:35.718Z,14.64
2023-03-24T20:20:10.372Z,14.69
2023-03-24T20:22:52.244Z,14.73
2023-03-24T20:25:59.142Z,14.67
2023-03-24T20:28:22.301Z,14.65
2023-03-24T20:31:29.083Z,14.70
2023-03-24T20:33:57.157Z,14.73
2023-03-24T20:36:23.904Z,14.75
2023-03-24T20:38:54.277Z,14.80
2023-03-24T20:41:22.069Z,14.80
2023-03-24T20:43:49.077Z,14.84
2023-03-24T20:46:17.875Z,14.85
2023-03-24T20:48:45.880Z,14.85
2023-03-24T20:54:16.512Z,14.78
2023-03-24T20:56:49.034Z,14.88
2023-03-24T20:59:18.484Z,14.92
2023-03-24T21:01:54.915Z,14.93
2023-03-24T21:04:25.474Z,15.04
2023-03-24T21:06:54.557Z,14.84
2023-03-24T21:09:25.317Z,14.49
2023-03-24T21:12:29.340Z,14.26
2023-03-24T21:15:00.407Z,14.04
2023-03-24T21:20:38.760Z,14.19
2023-03-24T21:23:08.142Z,14.21
2023-03-24T21:25:36.680Z,14.24
2023-03-24T21:28:04.075Z,14.23
2023-03-24T21:30:31.518Z,14.23
2023-03-24T21:32:59.576Z,14.18
2023-03-24T21:35:26.983Z,14.11
2023-03-24T21:37:54.456Z,14.05
2023-03-24T21:40:24.559Z,14.04
2023-03-24T21:42:53.576Z,13.97
2023-03-24T21:45:23.627Z,13.98
2023-03-24T21:47:50.928Z,13.98
2023-03-24T21:50:22.714Z,14.08
2023-03-24T21:52:51.302Z,14.07
2023-03-24T21:55:20.414Z,14.08
2023-03-24T21:57:49.913Z,14.07
2023-03-24T22:00:19.601Z,14.02
2023-03-24T22:02:47.810Z,13.89
2023-03-24T22:05:17.171Z,13.46
2023-03-24T22:07:51.854Z,13.36
2023-03-24T22:10:22.683Z,13.38
2023-03-24T22:12:53.582Z,13.47
2023-03-24T22:15:21.336Z,13.53
2023-03-24T22:17:48.149Z,13.60
2023-03-24T22:20:15.875Z,13.73
2023-03-24T22:22:43.099Z,13.87
2023-03-24T22:25:13.163Z,13.91
2023-03-24T22:27:40.135Z,13.88
2023-03-24T22:30:10.609Z,13.77
2023-03-24T22:32:37.386Z,13.85
2023-03-24T22:35:04.585Z,13.86
2023-03-24T22:37:32.493Z,13.93
2023-03-24T22:39:59.266Z,14.00
2023-03-24T22:42:25.973Z,14.07
2023-03-24T22:44:52.643Z,14.08
2023-03-24T22:47:19.348Z,14.02
2023-03-24T22:49:46.132Z,13.99
2023-03-24T22:52:12.779Z,13.90
2023-03-24T22:54:40.281Z,13.91
2023-03-24T22:57:07.399Z,13.98
2023-03-24T22:59:35.583Z,14.00
2023-03-24T23:02:09.809Z,13.99
2023-03-24T23:04:39.855Z,14.00
2023-03-24T23:07:07.618Z,13.97
2023-03-24T23:09:34.450Z,13.94
2023-03-24T23:12:01.458Z,13.94
2023-03-24T23:14:28.360Z,13.88
2023-03-24T23:16:56.161Z,13.79
2023-03-24T23:19:23.298Z,13.88
2023-03-24T23:21:50.056Z,13.95
2023-03-24T23:24:17.092Z,13.95
2023-03-24T23:26:44.093Z,13.96
2023-03-24T23:29:11.038Z,13.96
2023-03-24T23:31:37.707Z,13.98
2023-03-24T23:34:07.553Z,13.85
2023-03-24T23:36:34.485Z,13.83
2023-03-24T23:39:01.179Z,13.82
2023-03-24T23:41:27.917Z,13.82
2023-03-24T23:43:55.109Z,13.74
2023-03-24T23:46:23.898Z,13.65
2023-03-24T23:48:50.938Z,13.57
2023-03-24T23:51:17.632Z,13.53
2023-03-24T23:53:44.691Z,13.45
2023-03-24T23:56:14.858Z,13.36
2023-03-24T23:58:42.722Z,13.28
